createdAt,value
2018-08-13T00:01:45.846Z,18.48
2018-08-13T00:04:12.157Z,18.37
2018-08-13T00:06:38.482Z,18.33
2018-08-13T00:09:04.779Z,18.31
2018-08-13T00:11:31.087Z,18.31
2018-08-13T00:13:57.394Z,18.31
2018-08-13T00:16:23.717Z,18.20
2018-08-13T00:18:50.038Z,18.00
2018-08-13T00:21:16.349Z,18.02
2018-08-13T00:23:42.658Z,17.93
2018-08-13T00:26:08.967Z,17.86
2018-08-13T00:28:35.274Z,17.81
2018-08-13T00:31:01.586Z,17.76
2018-08-13T00:33:27.912Z,17.67
2018-08-13T00:35:54.221Z,17.62
2018-08-13T00:38:20.534Z,17.56
2018-08-13T00:40:46.841Z,17.58
2018-08-13T00:43:13.146Z,17.56
2018-08-13T00:45:39.455Z,17.50
2018-08-13T00:48:05.815Z,17.40
2018-08-13T00:50:32.108Z,17.41
2018-08-13T00:52:58.417Z,17.35
2018-08-13T00:55:24.725Z,17.25
2018-08-13T00:57:51.044Z,17.19
2018-08-13T01:00:17.359Z,17.24
2018-08-13T01:02:43.734Z,17.20
2018-08-13T01:05:10.059Z,17.15
2018-08-13T01:07:36.370Z,17.34
2018-08-13T01:10:02.678Z,17.46
2018-08-13T01:12:28.991Z,17.48
2018-08-13T01:14:55.297Z,17.40
2018-08-13T01:17:21.614Z,17.35
2018-08-13T01:19:47.930Z,17.45
2018-08-13T01:22:14.234Z,17.42
2018-08-13T01:24:40.554Z,17.40
2018-08-13T01:27:06.873Z,17.44
2018-08-13T01:29:33.191Z,17.32
2018-08-13T01:31:59.495Z,17.25
2018-08-13T01:34:25.812Z,17.20
2018-08-13T01:36:52.118Z,17.10
2018-08-13T01:39:18.436Z,17.06
2018-08-13T01:41:44.750Z,17.03
2018-08-13T01:44:11.066Z,16.93
2018-08-13T01:46:37.381Z,16.83
2018-08-13T01:49:03.689Z,16.85
2018-08-13T01:51:30.045Z,16.82
2018-08-13T01:53:56.359Z,16.86
2018-08-13T01:56:22.671Z,16.98
2018-08-13T01:58:48.992Z,17.02
2018-08-13T02:01:15.329Z,17.08
2018-08-13T02:03:41.613Z,17.06
2018-08-13T02:06:07.928Z,17.12
2018-08-13T02:08:34.240Z,17.02
2018-08-13T02:11:00.558Z,16.97
2018-08-13T02:13:26.884Z,16.92
2018-08-13T02:15:53.210Z,16.78
2018-08-13T02:18:19.520Z,16.87
2018-08-13T02:20:45.828Z,16.78
2018-08-13T02:23:12.145Z,16.69
2018-08-13T02:25:38.480Z,16.64
2018-08-13T02:28:04.788Z,16.68
2018-08-13T02:30:31.106Z,16.70
2018-08-13T02:32:57.417Z,16.69
2018-08-13T02:35:23.733Z,16.56
2018-08-13T02:37:50.054Z,16.47
2018-08-13T02:40:16.389Z,16.49
2018-08-13T02:42:42.700Z,16.50
2018-08-13T02:45:09.038Z,16.49
2018-08-13T02:47:35.324Z,16.40
2018-08-13T02:50:01.632Z,16.34
2018-08-13T02:52:27.944Z,16.28
2018-08-13T02:54:54.264Z,16.19
2018-08-13T02:57:20.580Z,16.18
2018-08-13T02:59:46.896Z,16.05
2018-08-13T03:02:13.213Z,16.01
2018-08-13T03:04:39.569Z,15.97
2018-08-13T03:07:05.842Z,15.95
2018-08-13T03:09:32.149Z,15.87
2018-08-13T03:11:58.461Z,15.85
2018-08-13T03:14:24.818Z,15.91
2018-08-13T03:16:51.095Z,15.99
2018-08-13T03:19:17.405Z,16.09
2018-08-13T03:21:43.763Z,16.02
2018-08-13T03:24:10.074Z,16.03
2018-08-13T03:26:36.384Z,16.11
2018-08-13T03:29:02.701Z,16.22
2018-08-13T03:31:29.041Z,16.18
2018-08-13T03:33:55.324Z,16.03
2018-08-13T03:36:21.639Z,15.97
2018-08-13T03:38:47.943Z,15.95
2018-08-13T03:41:14.260Z,15.83
2018-08-13T03:43:40.584Z,15.93
2018-08-13T03:46:06.945Z,16.00
2018-08-13T03:48:33.266Z,15.99
2018-08-13T03:50:59.557Z,15.99
2018-08-13T03:53:25.868Z,16.02
2018-08-13T03:55:52.176Z,16.11
2018-08-13T03:58:18.528Z,16.08
2018-08-13T04:00:44.855Z,16.07
2018-08-13T04:03:11.164Z,16.20
2018-08-13T04:05:37.476Z,16.34
2018-08-13T04:08:03.783Z,16.35
2018-08-13T04:10:30.092Z,16.32
2018-08-13T04:12:56.450Z,16.32
2018-08-13T04:15:22.711Z,16.50
2018-08-13T04:17:49.023Z,16.62
2018-08-13T04:20:15.333Z,16.92
2018-08-13T04:22:41.643Z,16.93
2018-08-13T04:25:07.962Z,17.03
2018-08-13T04:27:34.282Z,17.14
2018-08-13T04:30:00.636Z,17.11
2018-08-13T04:32:26.943Z,17.29
2018-08-13T04:34:53.253Z,17.49
2018-08-13T04:37:19.570Z,17.68
2018-08-13T04:39:45.875Z,18.05
2018-08-13T04:42:12.211Z,18.20
2018-08-13T04:44:38.520Z,18.35
2018-08-13T04:47:04.831Z,18.48
2018-08-13T04:49:31.140Z,18.72
2018-08-13T04:51:57.493Z,19.01
2018-08-13T04:54:23.800Z,19.27
2018-08-13T04:56:50.115Z,19.53
2018-08-13T04:59:16.460Z,19.73
2018-08-13T05:01:42.798Z,20.69
2018-08-13T05:04:09.108Z,22.29
2018-08-13T05:06:35.474Z,22.95
2018-08-13T05:09:01.800Z,22.50
2018-08-13T05:11:28.106Z,22.79
2018-08-13T05:13:54.416Z,22.15
2018-08-13T05:16:20.733Z,21.66
2018-08-13T05:18:47.089Z,22.48
2018-08-13T05:21:13.437Z,22.93
2018-08-13T05:23:39.714Z,23.36
2018-08-13T05:26:06.031Z,23.86
2018-08-13T05:28:32.395Z,24.18
2018-08-13T05:30:58.711Z,24.32
2018-08-13T05:33:25.019Z,24.43
2018-08-13T05:35:51.330Z,24.41
2018-08-13T05:38:17.693Z,24.85
2018-08-13T05:40:43.968Z,24.84
2018-08-13T05:43:10.287Z,24.37
2018-08-13T05:45:36.595Z,23.59
2018-08-13T05:48:02.906Z,23.72
2018-08-13T05:50:29.215Z,24.40
2018-08-13T05:52:55.611Z,25.06
2018-08-13T05:55:21.845Z,25.37
2018-08-13T05:57:48.155Z,25.77
2018-08-13T06:00:14.480Z,25.85
2018-08-13T06:02:40.788Z,25.85
2018-08-13T06:05:07.101Z,25.84
2018-08-13T06:07:33.411Z,25.77
2018-08-13T06:09:59.723Z,25.64
2018-08-13T06:12:26.024Z,25.89
2018-08-13T06:14:52.344Z,25.70
2018-08-13T06:17:18.669Z,25.40
2018-08-13T06:19:44.971Z,25.10
2018-08-13T06:22:11.282Z,25.55
2018-08-13T06:24:37.595Z,25.62
2018-08-13T06:27:03.904Z,26.48
2018-08-13T06:29:30.256Z,26.50
2018-08-13T06:31:56.580Z,26.15
2018-08-13T06:34:22.886Z,25.98
2018-08-13T06:36:49.207Z,26.15
2018-08-13T06:39:15.523Z,25.89
2018-08-13T06:41:41.834Z,26.00
2018-08-13T06:44:08.190Z,25.79
2018-08-13T06:46:34.503Z,25.77
2018-08-13T06:49:00.812Z,26.08
2018-08-13T06:51:27.121Z,25.82
2018-08-13T06:53:53.453Z,25.70
2018-08-13T06:56:19.754Z,26.33
2018-08-13T06:58:46.074Z,26.14
2018-08-13T07:01:12.390Z,26.08
2018-08-13T07:03:38.704Z,26.08
2018-08-13T07:08:31.394Z,26.33
2018-08-13T07:10:57.721Z,26.21
2018-08-13T07:13:24.085Z,26.47
2018-08-13T07:15:50.453Z,26.56
2018-08-13T07:18:16.713Z,26.96
2018-08-13T07:20:43.029Z,27.51
2018-08-13T07:23:09.344Z,27.61
2018-08-13T07:25:35.784Z,27.65
2018-08-13T07:28:02.208Z,27.63
2018-08-13T07:30:28.460Z,27.90
2018-08-13T07:32:54.774Z,28.00
2018-08-13T07:35:21.099Z,28.21
2018-08-13T07:37:47.417Z,28.39
2018-08-13T07:40:13.733Z,27.84
2018-08-13T07:42:40.040Z,28.17
2018-08-13T07:45:06.365Z,28.45
2018-08-13T07:47:32.676Z,28.23
2018-08-13T07:49:58.988Z,28.10
2018-08-13T07:52:25.300Z,28.15
2018-08-13T07:54:51.611Z,28.41
2018-08-13T07:57:17.923Z,28.51
2018-08-13T07:59:44.248Z,28.85
2018-08-13T08:02:10.564Z,29.34
2018-08-13T08:04:36.884Z,29.27
2018-08-13T08:07:03.202Z,29.05
2018-08-13T08:09:29.524Z,29.26
2018-08-13T08:11:55.823Z,29.78
2018-08-13T08:14:22.132Z,30.00
2018-08-13T08:16:48.448Z,30.23
2018-08-13T08:19:14.767Z,29.78
2018-08-13T08:21:41.075Z,29.28
2018-08-13T08:24:07.398Z,29.58
2018-08-13T08:26:33.699Z,29.25
2018-08-13T08:29:00.076Z,29.26
2018-08-13T08:31:26.328Z,29.69
2018-08-13T08:33:52.634Z,29.84
2018-08-13T08:36:18.947Z,29.94
2018-08-13T08:38:45.254Z,30.29
2018-08-13T08:41:11.563Z,30.23
2018-08-13T08:43:37.872Z,30.14
2018-08-13T08:46:04.221Z,29.75
2018-08-13T08:48:30.508Z,29.74
2018-08-13T08:50:56.815Z,29.95
2018-08-13T08:53:23.124Z,30.50
2018-08-13T08:55:49.436Z,30.91
2018-08-13T08:58:15.743Z,30.26
2018-08-13T09:00:42.100Z,30.76
2018-08-13T09:03:08.360Z,31.09
2018-08-13T09:05:34.667Z,30.90
2018-08-13T09:08:00.980Z,30.49
2018-08-13T09:10:27.290Z,30.84
2018-08-13T09:12:53.596Z,30.82
2018-08-13T09:15:19.905Z,30.16
2018-08-13T09:17:46.251Z,30.26
2018-08-13T09:20:12.560Z,30.36
2018-08-13T09:22:38.873Z,30.46
2018-08-13T09:25:05.185Z,30.68
2018-08-13T09:27:31.492Z,31.13
2018-08-13T09:29:57.802Z,30.66
2018-08-13T09:32:24.111Z,30.22
2018-08-13T09:34:50.435Z,29.98
2018-08-13T09:37:16.741Z,30.50
2018-08-13T09:39:43.060Z,30.86
2018-08-13T09:42:09.360Z,31.06
2018-08-13T09:44:35.667Z,31.57
2018-08-13T09:47:01.982Z,32.24
2018-08-13T09:49:28.343Z,32.13
2018-08-13T09:51:54.657Z,31.33
2018-08-13T09:54:20.976Z,31.33
2018-08-13T09:56:47.285Z,31.29
2018-08-13T09:59:13.595Z,31.60
2018-08-13T10:01:39.910Z,31.23
2018-08-13T10:04:06.226Z,31.41
2018-08-13T10:06:32.535Z,31.60
2018-08-13T10:08:58.845Z,31.68
2018-08-13T10:11:25.163Z,32.17
2018-08-13T10:13:51.483Z,31.91
2018-08-13T10:16:17.793Z,31.79
2018-08-13T10:18:44.176Z,31.71
2018-08-13T10:21:10.464Z,31.91
2018-08-13T10:23:36.768Z,31.42
2018-08-13T10:26:03.088Z,32.17
2018-08-13T10:28:29.396Z,32.58
2018-08-13T10:30:55.718Z,32.34
2018-08-13T10:33:22.094Z,32.23
2018-08-13T10:35:48.395Z,32.73
2018-08-13T10:38:14.754Z,33.24
2018-08-13T10:40:41.071Z,33.50
2018-08-13T10:43:07.388Z,33.27
2018-08-13T10:45:33.705Z,32.08
2018-08-13T10:48:00.054Z,32.30
2018-08-13T10:50:26.361Z,32.31
2018-08-13T10:52:52.677Z,31.86
2018-08-13T10:55:18.999Z,32.64
2018-08-13T10:57:45.322Z,33.15
2018-08-13T11:00:11.693Z,32.21
2018-08-13T11:02:38.001Z,31.85
2018-08-13T11:05:04.315Z,31.69
2018-08-13T11:07:30.622Z,31.85
2018-08-13T11:09:56.987Z,32.09
2018-08-13T11:12:23.299Z,32.62
2018-08-13T11:14:49.608Z,31.86
2018-08-13T11:17:15.919Z,32.24
2018-08-13T11:19:42.230Z,31.89
2018-08-13T11:22:08.549Z,32.52
2018-08-13T11:24:34.856Z,32.68
2018-08-13T11:27:01.169Z,32.21
2018-08-13T11:29:27.498Z,31.99
2018-08-13T11:31:53.812Z,32.06
2018-08-13T11:34:20.120Z,32.34
2018-08-13T11:36:46.444Z,31.69
2018-08-13T11:39:12.756Z,31.75
2018-08-13T11:41:39.122Z,31.88
2018-08-13T11:44:05.443Z,32.48
2018-08-13T11:46:31.753Z,33.15
2018-08-13T11:48:58.070Z,33.45
2018-08-13T11:51:24.429Z,32.94
2018-08-13T11:53:50.747Z,32.88
2018-08-13T11:56:17.071Z,31.60
2018-08-13T11:58:43.372Z,31.60
2018-08-13T12:01:09.764Z,31.57
2018-08-13T12:03:36.015Z,31.25
2018-08-13T12:06:02.322Z,31.35
2018-08-13T12:08:28.705Z,31.56
2018-08-13T12:10:55.011Z,31.88
2018-08-13T12:13:21.337Z,32.16
2018-08-13T12:15:47.660Z,32.46
2018-08-13T12:18:13.970Z,32.58
2018-08-13T12:20:40.281Z,32.45
2018-08-13T12:23:06.597Z,32.46
2018-08-13T12:25:32.904Z,32.78
2018-08-13T12:27:59.219Z,32.68
2018-08-13T12:30:25.532Z,32.40
2018-08-13T12:32:51.850Z,32.07
2018-08-13T12:35:18.162Z,31.73
2018-08-13T12:37:44.467Z,32.02
2018-08-13T12:40:10.793Z,31.87
2018-08-13T12:42:37.113Z,31.96
2018-08-13T12:45:03.431Z,32.21
2018-08-13T12:47:29.768Z,31.97
2018-08-13T12:49:56.088Z,31.92
2018-08-13T12:52:22.448Z,31.74
2018-08-13T12:54:48.764Z,31.41
2018-08-13T12:57:15.088Z,30.78
2018-08-13T12:59:41.425Z,30.79
2018-08-13T13:02:07.750Z,30.98
2018-08-13T13:04:34.084Z,31.10
2018-08-13T13:07:00.387Z,30.98
2018-08-13T13:09:26.733Z,31.08
2018-08-13T13:11:53.044Z,31.24
2018-08-13T13:14:19.363Z,31.48
2018-08-13T13:16:45.739Z,31.31
2018-08-13T13:19:12.044Z,30.94
2018-08-13T13:21:38.387Z,30.84
2018-08-13T13:24:04.700Z,30.69
2018-08-13T13:26:31.053Z,30.44
2018-08-13T13:28:57.355Z,30.10
2018-08-13T13:31:23.693Z,29.99
2018-08-13T13:33:50.011Z,29.98
2018-08-13T13:36:16.394Z,29.83
2018-08-13T13:38:42.756Z,29.79
2018-08-13T13:41:09.069Z,29.84
2018-08-13T13:43:35.380Z,29.85
2018-08-13T13:46:01.694Z,29.74
2018-08-13T13:48:28.057Z,29.51
2018-08-13T13:50:54.364Z,29.61
2018-08-13T13:53:20.681Z,29.88
2018-08-13T13:55:46.988Z,29.84
2018-08-13T13:58:13.296Z,29.77
2018-08-13T14:00:39.639Z,29.64
2018-08-13T14:03:05.948Z,29.68
2018-08-13T14:05:32.258Z,29.64
2018-08-13T14:07:58.591Z,29.58
2018-08-13T14:10:24.909Z,29.57
2018-08-13T14:12:51.221Z,29.62
2018-08-13T14:15:17.536Z,29.53
2018-08-13T14:17:43.880Z,29.41
2018-08-13T14:20:10.199Z,29.41
2018-08-13T14:22:36.518Z,29.35
2018-08-13T14:25:02.831Z,29.37
2018-08-13T14:27:29.140Z,29.27
2018-08-13T14:29:55.449Z,29.22
2018-08-13T14:32:21.798Z,29.29
2018-08-13T14:34:48.258Z,29.39
2018-08-13T14:37:14.471Z,29.21
2018-08-13T14:39:40.783Z,29.32
2018-08-13T14:42:07.139Z,29.20
2018-08-13T14:44:33.444Z,29.07
2018-08-13T14:46:59.791Z,29.03
2018-08-13T14:49:26.101Z,29.02
2018-08-13T14:51:52.453Z,29.10
2018-08-13T14:54:18.759Z,29.14
2018-08-13T14:56:45.231Z,29.05
2018-08-13T14:59:11.418Z,29.03
2018-08-13T15:01:37.749Z,29.06
2018-08-13T15:04:04.101Z,29.07
2018-08-13T15:06:30.408Z,29.08
2018-08-13T15:08:56.765Z,29.09
2018-08-13T15:11:23.067Z,28.99
2018-08-13T15:13:49.389Z,29.02
2018-08-13T15:16:15.701Z,29.07
2018-08-13T15:18:42.022Z,29.16
2018-08-13T15:21:08.368Z,29.13
2018-08-13T15:23:34.681Z,29.06
2018-08-13T15:26:01.047Z,29.05
2018-08-13T15:28:27.370Z,28.93
2018-08-13T15:30:53.700Z,28.86
2018-08-13T15:33:20.122Z,28.82
2018-08-13T15:35:46.394Z,28.89
2018-08-13T15:38:12.704Z,28.90
2018-08-13T15:40:39.030Z,28.88
2018-08-13T15:43:05.352Z,28.81
2018-08-13T15:45:31.663Z,28.71
2018-08-13T15:47:58.012Z,28.73
2018-08-13T15:50:24.277Z,28.84
2018-08-13T15:52:50.588Z,28.68
2018-08-13T15:55:16.924Z,28.58
2018-08-13T15:57:43.226Z,28.72
2018-08-13T16:00:09.539Z,28.78
2018-08-13T16:02:35.859Z,28.71
2018-08-13T16:05:02.171Z,28.60
2018-08-13T16:07:28.494Z,28.52
2018-08-13T16:09:54.826Z,28.55
2018-08-13T16:12:21.146Z,28.53
2018-08-13T16:14:47.458Z,28.53
2018-08-13T16:17:13.779Z,28.40
2018-08-13T16:19:40.091Z,28.38
2018-08-13T16:22:06.418Z,28.39
2018-08-13T16:24:32.743Z,28.30
2018-08-13T16:26:59.062Z,28.24
2018-08-13T16:29:25.372Z,28.18
2018-08-13T16:31:51.687Z,28.12
2018-08-13T16:34:17.999Z,28.12
2018-08-13T16:36:44.316Z,28.05
2018-08-13T16:39:10.638Z,28.02
2018-08-13T16:41:36.944Z,28.01
2018-08-13T16:44:03.282Z,27.99
2018-08-13T16:46:29.618Z,27.97
2018-08-13T16:48:55.927Z,27.91
2018-08-13T16:51:22.240Z,27.84
2018-08-13T16:53:48.623Z,27.82
2018-08-13T16:56:15.007Z,27.77
2018-08-13T16:58:41.233Z,27.75
2018-08-13T17:01:07.539Z,27.69
2018-08-13T17:03:33.862Z,27.61
2018-08-13T17:06:00.185Z,27.53
2018-08-13T17:08:26.520Z,27.47
2018-08-13T17:10:52.852Z,27.37
2018-08-13T17:13:19.169Z,27.28
2018-08-13T17:15:45.497Z,27.19
2018-08-13T17:18:11.808Z,27.11
2018-08-13T17:20:38.134Z,26.92
2018-08-13T17:23:04.439Z,26.75
2018-08-13T17:25:30.748Z,26.68
2018-08-13T17:27:57.063Z,26.65
2018-08-13T17:30:23.384Z,26.62
2018-08-13T17:32:49.696Z,26.57
2018-08-13T17:35:16.000Z,26.47
2018-08-13T17:37:42.322Z,26.39
2018-08-13T17:40:08.655Z,26.31
2018-08-13T17:42:34.998Z,26.23
2018-08-13T17:45:01.297Z,26.12
2018-08-13T17:47:27.623Z,26.06
2018-08-13T17:49:53.926Z,26.03
2018-08-13T17:52:20.254Z,25.98
2018-08-13T17:54:46.559Z,25.90
2018-08-13T17:57:12.863Z,25.73
2018-08-13T17:59:39.217Z,25.60
2018-08-13T18:02:05.554Z,25.47
2018-08-13T18:04:31.855Z,25.38
2018-08-13T18:06:58.211Z,25.38
2018-08-13T18:09:24.546Z,25.38
2018-08-13T18:11:50.861Z,25.33
2018-08-13T18:14:17.181Z,25.24
2018-08-13T18:16:43.505Z,25.14
2018-08-13T18:19:09.886Z,25.06
2018-08-13T18:21:36.150Z,25.02
2018-08-13T18:24:02.460Z,25.02
2018-08-13T18:26:28.787Z,24.99
2018-08-13T18:28:55.112Z,24.89
2018-08-13T18:31:21.420Z,24.83
2018-08-13T18:33:47.764Z,24.78
2018-08-13T18:36:14.091Z,24.68
2018-08-13T18:38:40.419Z,24.63
2018-08-13T18:41:06.742Z,24.67
2018-08-13T18:43:33.107Z,24.60
2018-08-13T18:45:59.421Z,24.55
2018-08-13T18:48:25.727Z,24.50
2018-08-13T18:50:52.041Z,24.45
2018-08-13T18:53:18.367Z,24.40
2018-08-13T18:55:44.686Z,24.37
2018-08-13T18:58:11.099Z,24.29
2018-08-13T19:00:37.431Z,24.24
2018-08-13T19:03:03.740Z,24.20
2018-08-13T19:05:30.067Z,24.17
2018-08-13T19:07:56.389Z,24.12
2018-08-13T19:10:22.701Z,24.08
2018-08-13T19:12:49.058Z,24.01
2018-08-13T19:15:15.379Z,23.92
2018-08-13T19:17:41.735Z,23.85
2018-08-13T19:20:08.079Z,23.78
2018-08-13T19:22:34.446Z,23.68
2018-08-13T19:25:00.754Z,23.62
2018-08-13T19:27:27.106Z,23.52
2018-08-13T19:29:53.475Z,23.42
2018-08-13T19:32:19.797Z,23.29
2018-08-13T19:34:46.149Z,23.17
2018-08-13T19:37:12.455Z,23.06
2018-08-13T19:39:38.783Z,23.00
2018-08-13T19:42:05.151Z,22.86
2018-08-13T19:44:31.489Z,22.77
2018-08-13T19:46:57.789Z,22.66
2018-08-13T19:49:24.110Z,22.58
2018-08-13T19:51:50.434Z,22.51
2018-08-13T19:54:16.758Z,22.44
2018-08-13T19:56:43.067Z,22.36
2018-08-13T19:59:09.392Z,22.30
2018-08-13T20:01:35.714Z,22.24
2018-08-13T20:04:02.083Z,22.20
2018-08-13T20:06:28.392Z,22.14
2018-08-13T20:08:54.698Z,22.07
2018-08-13T20:11:21.022Z,22.01
2018-08-13T20:13:47.333Z,21.96
2018-08-13T20:16:13.640Z,21.90
2018-08-13T20:18:39.965Z,21.83
2018-08-13T20:21:06.277Z,21.72
2018-08-13T20:23:32.587Z,21.63
2018-08-13T20:25:58.912Z,21.55
2018-08-13T20:28:25.238Z,21.48
2018-08-13T20:30:51.567Z,21.41
2018-08-13T20:33:17.875Z,21.39
2018-08-13T20:35:44.188Z,21.35
2018-08-13T20:38:10.510Z,21.34
2018-08-13T20:40:36.820Z,21.27
2018-08-13T20:43:03.128Z,21.20
2018-08-13T20:45:29.455Z,21.19
2018-08-13T20:47:55.768Z,21.17
2018-08-13T20:50:22.103Z,21.14
2018-08-13T20:52:48.405Z,21.12
2018-08-13T20:55:14.769Z,21.05
2018-08-13T20:57:41.095Z,21.01
2018-08-13T21:00:07.473Z,20.99
2018-08-13T21:02:33.778Z,20.97
2018-08-13T21:05:00.103Z,20.93
2018-08-13T21:07:26.417Z,20.89
2018-08-13T21:09:52.769Z,20.88
2018-08-13T21:12:19.072Z,20.87
2018-08-13T21:14:45.429Z,20.80
2018-08-13T21:17:11.781Z,20.75
2018-08-13T21:19:38.098Z,20.75
2018-08-13T21:22:04.421Z,20.67
2018-08-13T21:24:30.732Z,20.64
2018-08-13T21:26:57.053Z,20.63
2018-08-13T21:29:23.369Z,20.65
2018-08-13T21:31:49.691Z,20.64
2018-08-13T21:34:16.007Z,20.57
2018-08-13T21:36:42.334Z,20.55
2018-08-13T21:39:08.649Z,20.53
2018-08-13T21:41:34.967Z,20.52
2018-08-13T21:44:01.278Z,20.49
2018-08-13T21:46:27.593Z,20.45
2018-08-13T21:48:53.905Z,20.39
2018-08-13T21:51:20.221Z,20.32
2018-08-13T21:53:46.578Z,20.34
2018-08-13T21:56:12.884Z,20.32
2018-08-13T21:58:39.205Z,20.31
2018-08-13T22:01:05.520Z,20.29
2018-08-13T22:03:31.825Z,20.28
2018-08-13T22:05:58.136Z,20.23
2018-08-13T22:08:24.461Z,20.21
2018-08-13T22:10:50.769Z,20.15
2018-08-13T22:13:17.080Z,20.11
2018-08-13T22:15:43.388Z,20.05
2018-08-13T22:18:09.702Z,19.99
2018-08-13T22:20:36.015Z,19.93
2018-08-13T22:23:02.318Z,19.92
2018-08-13T22:25:28.628Z,19.96
2018-08-13T22:27:54.996Z,19.93
2018-08-13T22:30:21.285Z,19.92
2018-08-13T22:32:47.596Z,19.91
2018-08-13T22:35:13.945Z,19.90
2018-08-13T22:37:40.344Z,19.90
2018-08-13T22:40:06.564Z,19.92
2018-08-13T22:42:32.867Z,19.91
2018-08-13T22:44:59.218Z,19.88
2018-08-13T22:47:25.568Z,19.88
2018-08-13T22:49:51.882Z,19.87
2018-08-13T22:52:18.198Z,19.88
2018-08-13T22:54:44.510Z,19.83
2018-08-13T22:57:10.861Z,19.80
2018-08-13T22:59:37.168Z,19.75
2018-08-13T23:02:03.476Z,19.75
2018-08-13T23:04:29.787Z,19.66
2018-08-13T23:06:56.119Z,19.62
2018-08-13T23:09:22.455Z,19.60
2018-08-13T23:11:48.790Z,19.52
2018-08-13T23:14:15.101Z,19.48
2018-08-13T23:16:41.413Z,19.47
2018-08-13T23:19:07.722Z,19.43
2018-08-13T23:21:34.023Z,19.36
2018-08-13T23:24:00.338Z,19.33
2018-08-13T23:26:26.643Z,19.31
2018-08-13T23:28:52.957Z,19.27
2018-08-13T23:31:19.272Z,19.24
2018-08-13T23:33:45.582Z,19.21
2018-08-13T23:36:11.893Z,19.19
2018-08-13T23:38:38.205Z,19.16
2018-08-13T23:41:04.507Z,19.19
2018-08-13T23:43:30.815Z,19.21
2018-08-13T23:45:57.120Z,19.20
2018-08-13T23:48:23.423Z,19.14
2018-08-13T23:50:49.732Z,19.13
2018-08-13T23:53:16.045Z,19.14
2018-08-13T23:55:42.351Z,19.16
2018-08-13T23:58:08.662Z,19.18
